weather station
Area: 3964 km2
The highest point: Čertův mlýn (1206 m.s.l.)
Total stations: 30
Stations online: 30
Stations offline: 0
Current weather
15°C

Meteorological map - weather stations in Zlínský

. The meteorological maps show weather information from WARIO weather stations

Weather stations Zlínský

 UpdatesNameStatusTemperatureHumidityWind speedWind direction
28.5.2022 15:23Valašské Meziříčí - Brňov16.8 °C54.2 %0.0 m/s E
28.5.2022 15:23Bystřička15.7 °C45.0 %1.7 m/s NW
28.5.2022 15:23Dolní Bečva14.3 °C54.9 %3.0 m/s E
28.5.2022 15:23Halenkov12.9 °C56.7 %2.5 m/s NE
28.5.2022 15:23Hošťálková14.2 °C43.4 %2.0 m/s N
28.5.2022 15:23Kateřinice15.9 °C42.2 %1.6 m/s NW
28.5.2022 15:23Kroměříž - Vážany15.6 °C48.6 %5.3 m/s NW
28.5.2022 15:23Kroměříž15.3 °C47.9 %2.5 m/s NW
28.5.2022 15:23Kroměříž16.9 °C36.0 %0.0 m/s NW
28.5.2022 15:23Lhota u Vsetína14.1 °C47.3 %2.6 m/s NW
28.5.2022 15:23Liptál14.9 °C56.1 %0.0 m/s NW
28.5.2022 15:23Luhačovice13.1 °C55.8 %4.8 m/s SW
28.5.2022 15:23Holešov13.8 °C65.2 %6.0 m/s NW
28.5.2022 15:23Vigantice17.4 °C49.0 %1.5 m/s NW
28.5.2022 15:23Vsetín13.1 °C55.5 %1.8 m/s E
28.5.2022 15:23Zlín14.4 °C51.7 %0.0 m/s SE
28.5.2022 15:23Uherské Hradiště15.2 °C59.1 %6.2 m/s W
28.5.2022 15:23Poličná16.4 °C47.1 %4.8 m/s W
28.5.2022 15:23Zlín17.3 °C44.7 %2.2 m/s W
28.5.2022 15:23Prusinovice16.0 °C52.9 %3.7 m/s N
28.5.2022 15:23Pržno15.0 °C45.0 %2.2 m/s SW
28.5.2022 15:22Rožnov pod Radhoštěm13.0 °C59.0 %1.7 m/s NE
28.5.2022 15:23Rajnochovice11.6 °C65.1 %0.0 m/s N
28.5.2022 15:23Ratiboř12.6 °C52.7 %3.8 m/s NW
28.5.2022 15:23Vigantice14.0 °C40.2 %1.8 m/s W
28.5.2022 15:23Růžďka14.8 °C48.6 %0.8 m/s S
28.5.2022 15:23Svatý Hostýn9.6 °C69.1 %3.8 m/s W
28.5.2022 15:23Valašské Meziříčí14.1 °C43.2 %3.4 m/s SW
28.5.2022 15:23Vidče12.2 °C53.2 %1.7 m/s W
28.5.2022 15:23Zlín16.5 °C52.1 %1.2 m/s NW
Email notifications
Enter your email address to subscribe to notifications about news at warioweather.com. Your email address will not be used for any purpose other than sending these emails and will not be provided to any third party. The subscription can be ended at any time.
All data are only indicative. The portal administrator has no responsibility for potentially incorrect data and related consequences. Publishing or further sharing of content from www.warioweather.com is only allowed with written consent from WANET s.r.o.